createdAt,value
2019-03-16T00:01:04.983Z,3.82
2019-03-16T00:03:31.294Z,3.77
2019-03-16T00:05:57.705Z,3.72
2019-03-16T00:08:24.119Z,3.68
2019-03-16T00:10:50.514Z,3.80
2019-03-16T00:13:16.788Z,3.82
2019-03-16T00:15:43.093Z,3.77
2019-03-16T00:18:09.403Z,3.68
2019-03-16T00:20:35.708Z,3.54
2019-03-16T00:23:02.020Z,3.65
2019-03-16T00:25:28.331Z,3.71
2019-03-16T00:27:54.640Z,3.62
2019-03-16T00:30:20.949Z,3.58
2019-03-16T00:32:47.253Z,3.51
2019-03-16T00:35:13.563Z,3.57
2019-03-16T00:37:39.887Z,3.46
2019-03-16T00:40:06.192Z,3.47
2019-03-16T00:42:32.497Z,3.43
2019-03-16T00:44:58.810Z,3.51
2019-03-16T00:47:25.113Z,3.69
2019-03-16T00:49:51.414Z,3.80
2019-03-16T00:52:17.716Z,3.72
2019-03-16T00:54:44.057Z,3.71
2019-03-16T00:57:10.364Z,3.78
2019-03-16T00:59:36.676Z,3.84
2019-03-16T01:02:02.994Z,3.76
2019-03-16T01:04:29.296Z,3.64
2019-03-16T01:06:55.606Z,3.65
2019-03-16T01:09:21.914Z,3.76
2019-03-16T01:11:48.225Z,3.79
2019-03-16T01:14:14.532Z,3.83
2019-03-16T01:16:40.849Z,3.79
2019-03-16T01:19:07.186Z,3.87
2019-03-16T01:21:33.500Z,3.96
2019-03-16T01:23:59.814Z,4.00
2019-03-16T01:26:26.116Z,3.97
2019-03-16T01:28:52.424Z,3.92
2019-03-16T01:31:18.740Z,3.91
2019-03-16T01:33:45.044Z,3.98
2019-03-16T01:36:11.355Z,4.11
2019-03-16T01:38:37.668Z,4.09
2019-03-16T01:41:03.973Z,4.06
2019-03-16T01:43:30.279Z,4.12
2019-03-16T01:45:56.586Z,4.16
2019-03-16T01:48:22.917Z,4.17
2019-03-16T01:50:49.218Z,4.16
2019-03-16T01:53:15.538Z,4.11
2019-03-16T01:55:41.834Z,4.12
2019-03-16T01:58:08.148Z,4.09
2019-03-16T02:00:34.466Z,4.10
2019-03-16T02:03:00.773Z,4.05
2019-03-16T02:05:27.098Z,4.01
2019-03-16T02:07:53.412Z,3.97
2019-03-16T02:10:19.728Z,3.92
2019-03-16T02:12:46.031Z,3.88
2019-03-16T02:15:12.340Z,4.00
2019-03-16T02:17:38.653Z,4.00
2019-03-16T02:20:04.964Z,3.98
2019-03-16T02:22:31.281Z,3.96
2019-03-16T02:24:57.588Z,4.02
2019-03-16T02:27:23.920Z,4.11
2019-03-16T02:29:50.230Z,4.19
2019-03-16T02:32:16.544Z,4.25
2019-03-16T02:34:42.854Z,4.31
2019-03-16T02:37:09.161Z,4.39
2019-03-16T02:39:35.478Z,4.45
2019-03-16T02:42:01.829Z,4.43
2019-03-16T02:44:28.139Z,4.39
2019-03-16T02:46:54.481Z,4.44
2019-03-16T02:49:20.785Z,4.54
2019-03-16T02:51:47.094Z,4.59
2019-03-16T02:54:13.402Z,4.61
2019-03-16T02:56:39.739Z,4.59
2019-03-16T02:59:06.130Z,4.58
2019-03-16T03:01:32.675Z,5.08
2019-03-16T03:03:58.986Z,5.87
2019-03-16T03:06:25.299Z,5.72
2019-03-16T03:08:51.604Z,5.39
2019-03-16T03:11:17.933Z,5.17
2019-03-16T03:13:44.268Z,5.03
2019-03-16T03:16:10.552Z,4.88
2019-03-16T03:18:36.865Z,4.87
2019-03-16T03:21:03.228Z,4.91
2019-03-16T03:23:29.480Z,4.96
2019-03-16T03:25:55.806Z,4.94
2019-03-16T03:28:22.145Z,4.87
2019-03-16T03:30:48.472Z,4.99
2019-03-16T03:33:15.021Z,4.91
2019-03-16T03:35:41.108Z,4.83
2019-03-16T03:38:07.408Z,4.81
2019-03-16T03:40:33.720Z,4.93
2019-03-16T03:43:00.045Z,4.94
2019-03-16T03:45:26.353Z,4.85
2019-03-16T03:47:52.663Z,4.78
2019-03-16T03:50:18.973Z,4.83
2019-03-16T03:52:45.286Z,4.87
2019-03-16T03:55:11.602Z,4.89
2019-03-16T03:57:37.913Z,4.87
2019-03-16T04:00:04.226Z,4.84
2019-03-16T04:02:30.559Z,4.80
2019-03-16T04:04:56.875Z,4.88
2019-03-16T04:07:23.206Z,4.87
2019-03-16T04:09:49.481Z,4.77
2019-03-16T04:12:15.794Z,4.69
2019-03-16T04:14:42.100Z,4.52
2019-03-16T04:17:08.409Z,4.45
2019-03-16T04:19:34.820Z,4.44
2019-03-16T04:22:01.028Z,4.45
2019-03-16T04:24:27.357Z,4.43
2019-03-16T04:26:53.669Z,4.47
2019-03-16T04:29:20.939Z,4.51
2019-03-16T04:31:46.281Z,4.58
2019-03-16T04:34:12.587Z,4.56
2019-03-16T04:36:38.902Z,4.49
2019-03-16T04:39:05.220Z,4.44
2019-03-16T04:41:31.549Z,4.42
2019-03-16T04:43:57.859Z,4.44
2019-03-16T04:46:24.187Z,4.37
2019-03-16T04:48:50.490Z,4.25
2019-03-16T04:51:16.797Z,4.28
2019-03-16T04:53:43.109Z,4.13
2019-03-16T04:56:09.417Z,3.85
2019-03-16T04:58:35.727Z,3.86
2019-03-16T05:01:02.030Z,3.86
2019-03-16T05:03:28.359Z,3.98
2019-03-16T05:05:54.663Z,4.18
2019-03-16T05:08:20.988Z,4.43
2019-03-16T05:10:47.301Z,4.78
2019-03-16T05:13:13.610Z,5.08
2019-03-16T05:15:39.918Z,5.27
2019-03-16T05:18:06.222Z,5.39
2019-03-16T05:20:32.565Z,5.52
2019-03-16T05:22:58.873Z,5.62
2019-03-16T05:25:25.176Z,5.89
2019-03-16T05:27:51.504Z,5.94
2019-03-16T05:30:17.820Z,6.03
2019-03-16T05:32:44.135Z,6.46
2019-03-16T05:35:10.436Z,6.53
2019-03-16T05:37:36.747Z,6.27
2019-03-16T05:40:03.061Z,6.41
2019-03-16T05:42:29.378Z,6.27
2019-03-16T05:44:55.691Z,6.38
2019-03-16T05:47:21.998Z,6.57
2019-03-16T05:49:48.333Z,6.65
2019-03-16T05:52:14.653Z,6.43
2019-03-16T05:54:40.991Z,5.61
2019-03-16T05:57:07.323Z,5.28
2019-03-16T05:59:33.698Z,5.23
2019-03-16T06:02:00.006Z,4.93
2019-03-16T06:04:26.318Z,4.74
2019-03-16T06:06:52.628Z,4.81
2019-03-16T06:09:18.936Z,4.83
2019-03-16T06:11:45.339Z,4.83
2019-03-16T06:14:11.652Z,4.80
2019-03-16T06:16:38.035Z,4.83
2019-03-16T06:19:04.349Z,4.87
2019-03-16T06:21:30.672Z,4.74
2019-03-16T06:23:56.982Z,4.88
2019-03-16T06:26:23.291Z,4.93
2019-03-16T06:28:49.624Z,4.77
2019-03-16T06:31:15.934Z,4.76
2019-03-16T06:33:42.237Z,5.63
2019-03-16T06:36:08.553Z,6.37
2019-03-16T06:38:34.887Z,7.20
2019-03-16T06:41:01.188Z,8.08
2019-03-16T06:43:27.500Z,8.60
2019-03-16T06:45:53.835Z,9.12
2019-03-16T06:48:20.154Z,9.33
2019-03-16T06:50:46.456Z,9.46
2019-03-16T06:53:12.770Z,9.59
2019-03-16T06:55:39.096Z,9.97
2019-03-16T06:58:05.413Z,10.21
2019-03-16T07:00:31.712Z,10.24
2019-03-16T07:02:58.045Z,10.48
2019-03-16T07:05:37.240Z,10.92
2019-03-16T07:07:50.676Z,10.26
2019-03-16T07:10:16.989Z,10.46
2019-03-16T07:12:43.293Z,10.22
2019-03-16T07:15:09.627Z,10.83
2019-03-16T07:17:35.946Z,11.31
2019-03-16T07:20:02.261Z,11.91
2019-03-16T07:22:28.574Z,11.48
2019-03-16T07:24:54.885Z,11.07
2019-03-16T07:27:26.027Z,10.90
2019-03-16T07:29:47.531Z,10.70
2019-03-16T07:32:13.842Z,10.39
2019-03-16T07:34:40.154Z,10.11
2019-03-16T07:37:06.472Z,9.91
2019-03-16T07:39:32.775Z,9.79
2019-03-16T07:42:00.559Z,9.80
2019-03-16T07:44:25.399Z,9.80
2019-03-16T07:46:51.724Z,10.24
2019-03-16T07:49:18.045Z,10.48
2019-03-16T07:51:44.345Z,10.57
2019-03-16T07:54:10.652Z,11.12
2019-03-16T07:56:36.956Z,11.54
2019-03-16T07:59:03.284Z,11.79
2019-03-16T08:01:29.589Z,12.16
2019-03-16T08:03:55.907Z,12.04
2019-03-16T08:06:22.212Z,12.21
2019-03-16T08:08:48.548Z,12.43
2019-03-16T08:11:14.832Z,12.88
2019-03-16T08:13:41.137Z,12.99
2019-03-16T08:16:07.464Z,13.17
2019-03-16T08:18:33.779Z,13.36
2019-03-16T08:21:00.213Z,12.91
2019-03-16T08:23:26.509Z,13.05
2019-03-16T08:25:52.869Z,13.78
2019-03-16T08:28:19.159Z,13.72
2019-03-16T08:30:45.464Z,13.32
2019-03-16T08:33:11.772Z,13.40
2019-03-16T08:35:38.128Z,13.63
2019-03-16T08:38:04.391Z,13.91
2019-03-16T08:40:30.693Z,14.09
2019-03-16T08:42:57.001Z,14.34
2019-03-16T08:45:23.310Z,14.42
2019-03-16T08:47:49.647Z,14.78
2019-03-16T08:50:15.960Z,15.11
2019-03-16T08:52:42.263Z,15.30
2019-03-16T08:55:08.578Z,14.72
2019-03-16T08:57:34.882Z,14.34
2019-03-16T09:00:01.194Z,14.60
2019-03-16T09:02:27.506Z,14.62
2019-03-16T09:04:53.826Z,14.60
2019-03-16T09:07:20.133Z,15.04
2019-03-16T09:09:46.464Z,15.25
2019-03-16T09:12:12.768Z,15.87
2019-03-16T09:14:39.073Z,16.01
2019-03-16T09:17:05.381Z,16.23
2019-03-16T09:19:31.692Z,16.73
2019-03-16T09:21:57.999Z,16.67
2019-03-16T09:24:24.310Z,16.81
2019-03-16T09:26:50.623Z,16.51
2019-03-16T09:29:16.937Z,16.52
2019-03-16T09:31:43.274Z,16.60
2019-03-16T09:34:09.581Z,16.82
2019-03-16T09:36:35.914Z,16.91
2019-03-16T09:39:02.209Z,16.78
2019-03-16T09:41:28.516Z,17.21
2019-03-16T09:43:54.829Z,17.48
2019-03-16T09:46:21.161Z,17.76
2019-03-16T09:48:47.474Z,18.64
2019-03-16T09:51:13.783Z,18.61
2019-03-16T09:53:40.093Z,19.08
2019-03-16T09:56:06.402Z,19.52
2019-03-16T09:58:32.831Z,19.76
2019-03-16T10:00:59.170Z,20.32
2019-03-16T10:03:25.468Z,19.94
2019-03-16T10:05:51.780Z,19.71
2019-03-16T10:08:19.308Z,19.59
2019-03-16T10:10:44.406Z,19.89
2019-03-16T10:13:10.733Z,19.70
2019-03-16T10:15:37.044Z,20.07
2019-03-16T10:18:03.358Z,20.03
2019-03-16T10:20:29.686Z,20.01
2019-03-16T10:22:55.978Z,20.12
2019-03-16T10:25:22.282Z,19.81
2019-03-16T10:27:48.682Z,19.66
2019-03-16T10:30:14.934Z,19.65
2019-03-16T10:32:41.246Z,19.66
2019-03-16T10:35:07.554Z,19.74
2019-03-16T10:37:33.859Z,19.72
2019-03-16T10:40:00.252Z,20.08
2019-03-16T10:42:26.471Z,20.39
2019-03-16T10:44:52.795Z,20.53
2019-03-16T10:47:19.181Z,20.27
2019-03-16T10:49:45.495Z,20.48
2019-03-16T10:52:11.837Z,20.33
2019-03-16T10:54:38.107Z,20.50
2019-03-16T10:57:04.602Z,20.67
2019-03-16T10:59:30.721Z,20.78
2019-03-16T11:01:57.038Z,20.71
2019-03-16T11:04:23.345Z,20.56
2019-03-16T11:06:49.709Z,20.44
2019-03-16T11:09:16.023Z,20.26
2019-03-16T11:11:42.351Z,20.23
2019-03-16T11:14:08.661Z,20.29
2019-03-16T11:16:34.969Z,20.26
2019-03-16T11:19:01.280Z,20.23
2019-03-16T11:21:27.717Z,20.10
2019-03-16T11:23:54.050Z,19.73
2019-03-16T11:26:20.373Z,19.55
2019-03-16T11:28:46.680Z,19.33
2019-03-16T11:31:13.021Z,19.35
2019-03-16T11:33:39.337Z,19.58
2019-03-16T11:36:05.656Z,19.43
2019-03-16T11:38:32.269Z,19.54
2019-03-16T11:40:58.580Z,19.78
2019-03-16T11:43:24.892Z,19.81
2019-03-16T11:45:51.206Z,19.35
2019-03-16T11:48:17.518Z,18.98
2019-03-16T11:50:43.832Z,18.73
2019-03-16T11:53:10.138Z,18.63
2019-03-16T11:55:36.447Z,18.78
2019-03-16T11:58:02.753Z,18.61
2019-03-16T12:00:29.121Z,18.59
2019-03-16T12:02:55.423Z,19.02
2019-03-16T12:05:21.726Z,19.59
2019-03-16T12:07:48.100Z,19.96
2019-03-16T12:10:14.346Z,19.93
2019-03-16T12:12:40.694Z,20.02
2019-03-16T12:15:06.973Z,20.45
2019-03-16T12:17:33.300Z,20.63
2019-03-16T12:19:59.614Z,20.73
2019-03-16T12:22:25.947Z,20.44
2019-03-16T12:24:52.262Z,20.38
2019-03-16T12:27:18.594Z,20.39
2019-03-16T12:29:44.902Z,20.14
2019-03-16T12:32:11.225Z,19.82
2019-03-16T12:34:37.575Z,19.53
2019-03-16T12:37:03.893Z,19.32
2019-03-16T12:39:30.201Z,19.08
2019-03-16T12:41:56.564Z,18.89
2019-03-16T12:44:22.915Z,18.83
2019-03-16T12:46:49.211Z,18.76
2019-03-16T12:49:15.528Z,18.57
2019-03-16T12:51:41.828Z,18.52
2019-03-16T12:54:08.174Z,18.38
2019-03-16T12:56:34.518Z,18.39
2019-03-16T12:59:09.933Z,18.43
2019-03-16T13:01:27.182Z,18.41
2019-03-16T13:03:53.493Z,18.30
2019-03-16T13:06:19.847Z,18.44
2019-03-16T13:08:46.169Z,18.44
2019-03-16T13:11:12.477Z,18.40
2019-03-16T13:13:38.816Z,18.34
2019-03-16T13:16:05.118Z,18.29
2019-03-16T13:18:31.468Z,18.33
2019-03-16T13:20:57.776Z,18.40
2019-03-16T13:23:24.150Z,18.39
2019-03-16T13:25:50.455Z,18.31
2019-03-16T13:28:16.784Z,18.15
2019-03-16T13:30:43.106Z,17.99
2019-03-16T13:33:09.442Z,17.96
2019-03-16T13:35:35.747Z,17.92
2019-03-16T13:38:02.090Z,17.98
2019-03-16T13:40:28.405Z,17.90
2019-03-16T13:42:54.827Z,17.89
2019-03-16T13:45:21.147Z,18.06
2019-03-16T13:47:47.453Z,18.19
2019-03-16T13:50:13.825Z,18.26
2019-03-16T13:52:40.132Z,18.16
2019-03-16T13:55:06.435Z,18.04
2019-03-16T13:57:32.749Z,17.79
2019-03-16T14:00:10.865Z,17.74
2019-03-16T14:02:25.392Z,17.67
2019-03-16T14:04:51.702Z,17.61
2019-03-16T14:07:18.011Z,17.53
2019-03-16T14:09:47.553Z,17.59
2019-03-16T14:12:13.891Z,17.65
2019-03-16T14:14:40.222Z,17.60
2019-03-16T14:17:06.561Z,17.72
2019-03-16T14:19:32.883Z,17.63
2019-03-16T14:21:59.296Z,17.51
2019-03-16T14:24:25.635Z,17.45
2019-03-16T14:26:51.966Z,17.48
2019-03-16T14:29:18.357Z,17.41
2019-03-16T14:31:44.677Z,17.36
2019-03-16T14:34:11.080Z,17.31
2019-03-16T14:36:37.405Z,17.28
2019-03-16T14:39:03.713Z,17.23
2019-03-16T14:41:30.020Z,17.25
2019-03-16T14:43:56.377Z,17.19
2019-03-16T14:46:22.718Z,17.15
2019-03-16T14:48:49.059Z,17.11
2019-03-16T14:51:15.369Z,17.07
2019-03-16T14:53:41.869Z,17.01
2019-03-16T14:56:08.175Z,16.99
2019-03-16T14:58:34.498Z,16.98
2019-03-16T15:01:00.825Z,17.03
2019-03-16T15:03:27.201Z,17.04
2019-03-16T15:05:53.518Z,17.07
2019-03-16T15:08:19.825Z,17.04
2019-03-16T15:10:46.132Z,17.02
2019-03-16T15:13:12.477Z,17.03
2019-03-16T15:15:38.796Z,16.97
2019-03-16T15:18:05.115Z,16.95
2019-03-16T15:20:31.447Z,16.95
2019-03-16T15:22:57.759Z,16.98
2019-03-16T15:25:24.065Z,16.98
2019-03-16T15:27:50.379Z,16.97
2019-03-16T15:30:16.718Z,16.94
2019-03-16T15:32:43.067Z,16.90
2019-03-16T15:35:09.369Z,16.88
2019-03-16T15:37:35.700Z,16.89
2019-03-16T15:40:02.017Z,16.88
2019-03-16T15:42:28.351Z,16.86
2019-03-16T15:44:54.665Z,16.83
2019-03-16T15:47:20.979Z,16.83
2019-03-16T15:49:47.299Z,16.80
2019-03-16T15:52:13.604Z,16.78
2019-03-16T15:54:40.111Z,16.72
2019-03-16T15:57:06.457Z,16.72
2019-03-16T15:59:32.756Z,16.66
2019-03-16T16:01:59.079Z,16.63
2019-03-16T16:04:25.380Z,16.61
2019-03-16T16:06:51.704Z,16.57
2019-03-16T16:09:18.043Z,16.55
2019-03-16T16:11:44.358Z,16.54
2019-03-16T16:14:10.640Z,16.50
2019-03-16T16:16:36.959Z,16.44
2019-03-16T16:19:03.264Z,16.41
2019-03-16T16:21:29.601Z,16.37
2019-03-16T16:23:55.967Z,16.31
2019-03-16T16:26:22.283Z,16.26
2019-03-16T16:28:48.612Z,16.23
2019-03-16T16:31:16.559Z,16.19
2019-03-16T16:33:41.220Z,16.15
2019-03-16T16:36:08.619Z,16.13
2019-03-16T16:38:33.866Z,16.12
2019-03-16T16:41:00.179Z,16.09
2019-03-16T16:43:26.563Z,16.06
2019-03-16T16:45:52.883Z,16.05
2019-03-16T16:48:19.210Z,16.04
2019-03-16T16:50:45.538Z,15.98
2019-03-16T16:53:11.844Z,15.96
2019-03-16T16:55:38.159Z,15.92
2019-03-16T16:58:04.470Z,15.84
2019-03-16T17:00:30.778Z,15.80
2019-03-16T17:02:57.089Z,15.81
2019-03-16T17:05:23.766Z,15.74
2019-03-16T17:07:50.086Z,15.68
2019-03-16T17:10:16.398Z,15.65
2019-03-16T17:12:42.715Z,15.58
2019-03-16T17:15:09.036Z,15.53
2019-03-16T17:17:35.805Z,15.55
2019-03-16T17:20:01.721Z,15.56
2019-03-16T17:22:28.037Z,15.54
2019-03-16T17:24:54.396Z,15.53
2019-03-16T17:27:20.682Z,15.51
2019-03-16T17:29:47.060Z,15.50
2019-03-16T17:32:13.381Z,15.49
2019-03-16T17:34:41.242Z,15.46
2019-03-16T17:37:06.028Z,15.45
2019-03-16T17:39:32.343Z,15.39
2019-03-16T17:41:58.718Z,15.33
2019-03-16T17:44:25.235Z,15.27
2019-03-16T17:46:51.510Z,15.27
2019-03-16T17:49:17.835Z,15.20
2019-03-16T17:51:44.166Z,15.17
2019-03-16T17:54:10.518Z,15.12
2019-03-16T17:56:36.871Z,15.06
2019-03-16T17:59:03.184Z,15.07
2019-03-16T18:01:29.518Z,15.06
2019-03-16T18:03:55.834Z,15.05
2019-03-16T18:06:22.165Z,15.05
2019-03-16T18:08:48.489Z,15.05
2019-03-16T18:11:14.804Z,15.03
2019-03-16T18:13:41.134Z,14.95
2019-03-16T18:16:07.446Z,14.96
2019-03-16T18:18:33.778Z,14.97
2019-03-16T18:21:00.133Z,14.95
2019-03-16T18:23:26.432Z,14.84
2019-03-16T18:25:52.732Z,14.78
2019-03-16T18:28:19.035Z,14.72
2019-03-16T18:30:45.354Z,14.72
2019-03-16T18:33:11.698Z,14.64
2019-03-16T18:35:38.023Z,14.55
2019-03-16T18:38:04.328Z,14.47
2019-03-16T18:40:30.643Z,14.37
2019-03-16T18:42:56.979Z,14.28
2019-03-16T18:45:23.290Z,14.17
2019-03-16T18:47:49.612Z,14.06
2019-03-16T18:50:15.923Z,13.95
2019-03-16T18:52:42.244Z,13.90
2019-03-16T18:55:08.602Z,13.90
2019-03-16T18:57:34.898Z,13.88
2019-03-16T19:00:01.209Z,13.90
2019-03-16T19:02:27.527Z,13.91
2019-03-16T19:04:53.837Z,13.90
2019-03-16T19:07:20.507Z,13.88
2019-03-16T19:09:46.805Z,13.89
2019-03-16T19:12:13.112Z,13.86
2019-03-16T19:14:39.452Z,13.85
2019-03-16T19:17:05.765Z,13.87
2019-03-16T19:19:32.083Z,13.88
2019-03-16T19:22:01.258Z,13.97
2019-03-16T19:24:27.567Z,14.07
2019-03-16T19:26:53.890Z,14.10
2019-03-16T19:29:20.203Z,14.12
2019-03-16T19:31:46.525Z,14.14
2019-03-16T19:34:12.837Z,14.13
2019-03-16T19:36:39.148Z,14.12
2019-03-16T19:39:05.460Z,14.07
2019-03-16T19:41:31.787Z,14.00
2019-03-16T19:43:58.088Z,13.90
2019-03-16T19:46:24.419Z,13.83
2019-03-16T19:48:50.724Z,13.79
2019-03-16T19:51:17.033Z,13.75
2019-03-16T19:53:43.353Z,13.66
2019-03-16T19:56:09.699Z,13.58
2019-03-16T19:58:36.012Z,13.47
2019-03-16T20:01:02.347Z,13.38
2019-03-16T20:03:28.662Z,13.30
2019-03-16T20:05:54.984Z,13.20
2019-03-16T20:08:21.308Z,13.15
2019-03-16T20:10:47.679Z,13.08
2019-03-16T20:13:13.962Z,13.03
2019-03-16T20:15:40.269Z,13.02
2019-03-16T20:18:06.587Z,13.04
2019-03-16T20:20:32.896Z,13.06
2019-03-16T20:22:59.222Z,13.07
2019-03-16T20:25:25.540Z,13.06
2019-03-16T20:27:51.873Z,13.02
2019-03-16T20:30:26.489Z,12.94
2019-03-16T20:32:48.206Z,12.90
2019-03-16T20:35:10.847Z,12.83
2019-03-16T20:37:37.131Z,12.78
2019-03-16T20:40:03.501Z,12.72
2019-03-16T20:42:29.808Z,12.60
2019-03-16T20:44:56.087Z,12.58
2019-03-16T20:47:22.399Z,12.51
2019-03-16T20:49:48.709Z,12.45
2019-03-16T20:52:15.064Z,12.40
2019-03-16T20:54:41.349Z,12.29
2019-03-16T20:57:07.668Z,12.26
2019-03-16T20:59:33.971Z,12.21
2019-03-16T21:02:00.304Z,12.17
2019-03-16T21:04:26.614Z,12.11
2019-03-16T21:06:52.924Z,12.04
2019-03-16T21:09:19.236Z,11.97
2019-03-16T21:11:45.541Z,11.92
2019-03-16T21:14:11.858Z,11.88
2019-03-16T21:16:38.173Z,11.84
2019-03-16T21:19:04.497Z,11.77
2019-03-16T21:21:30.801Z,11.71
2019-03-16T21:23:57.127Z,11.64
2019-03-16T21:26:23.432Z,11.90
2019-03-16T21:28:49.758Z,12.16
2019-03-16T21:31:16.118Z,12.07
2019-03-16T21:33:42.471Z,11.77
2019-03-16T21:36:08.783Z,11.47
2019-03-16T21:38:35.093Z,11.15
2019-03-16T21:41:01.411Z,10.94
2019-03-16T21:43:27.738Z,10.89
2019-03-16T21:45:54.044Z,11.03
2019-03-16T21:48:20.356Z,10.88
2019-03-16T21:50:46.674Z,10.78
2019-03-16T21:53:12.982Z,10.74
2019-03-16T21:55:39.349Z,10.60
2019-03-16T21:58:05.660Z,10.48
2019-03-16T22:00:31.974Z,10.48
2019-03-16T22:02:58.285Z,10.59
2019-03-16T22:05:24.616Z,10.51
2019-03-16T22:07:50.941Z,10.53
2019-03-16T22:10:17.250Z,10.60
2019-03-16T22:12:43.628Z,10.43
2019-03-16T22:15:09.972Z,10.33
2019-03-16T22:17:36.282Z,10.40
2019-03-16T22:20:02.595Z,10.43
2019-03-16T22:22:28.909Z,10.31
2019-03-16T22:24:55.230Z,10.39
2019-03-16T22:27:21.561Z,10.54
2019-03-16T22:29:47.887Z,10.50
2019-03-16T22:32:14.210Z,10.53
2019-03-16T22:34:42.638Z,10.62
2019-03-16T22:37:06.857Z,10.58
2019-03-16T22:39:33.183Z,10.52
2019-03-16T22:41:59.522Z,10.53
2019-03-16T22:44:25.834Z,10.30
2019-03-16T22:46:52.148Z,10.07
2019-03-16T22:49:18.481Z,10.18
2019-03-16T22:51:44.800Z,10.36
2019-03-16T22:54:11.144Z,10.03
2019-03-16T22:56:37.452Z,9.86
2019-03-16T22:59:03.777Z,9.71
2019-03-16T23:01:32.995Z,9.83
2019-03-16T23:04:06.953Z,9.94
2019-03-16T23:06:25.645Z,9.92
2019-03-16T23:08:52.008Z,9.98
2019-03-16T23:11:18.272Z,10.00
2019-03-16T23:13:44.624Z,10.07
2019-03-16T23:16:10.989Z,9.99
2019-03-16T23:18:37.250Z,9.90
2019-03-16T23:21:03.565Z,9.81
2019-03-16T23:23:29.891Z,9.74
2019-03-16T23:25:56.242Z,9.74
2019-03-16T23:28:22.552Z,9.69
2019-03-16T23:30:48.867Z,9.57
2019-03-16T23:33:15.194Z,9.54
2019-03-16T23:35:41.497Z,9.56
2019-03-16T23:38:09.609Z,9.58
2019-03-16T23:40:34.140Z,9.65
2019-03-16T23:43:00.587Z,9.49
2019-03-16T23:45:26.890Z,9.47
2019-03-16T23:47:56.002Z,9.44
2019-03-16T23:50:22.310Z,9.32
2019-03-16T23:52:48.752Z,9.32
2019-03-16T23:55:14.947Z,9.18
2019-03-16T23:57:41.253Z,9.08
